ePrivacy and GPDR Cookie Consent by Cookie Consent
EmailTwitter


Observations de surface / Québec / CYQB (71714)

Régions: Québec | Canada | États-Unis | Europe | France | UK | Ailleurs
Station
Affichage
Infos & localisation pour CYQB (71714) | Aide pour décoder les METARs

Observations prises le 2023-01-28 à 09H00 UTC à QUEBEC A, QB (CYQB)

Etat du ciel: couvert.

Température: -9.0 Celsius

Point de rosée: -11.0 Celsius

Humidité relative: 85%

Facteur vent -12.

Vents: Nord-est à 6 km/h ou 3 noeuds.

Pression au niveau moyen de la mer: 101.48 kilopascals.

Calage altimétrique: 101.42 kilopascals ou 29.95 pouces de mercure.

Visibilité horizontale: 12.00 milles terrestres ou 19.20 kilomètres.

Hauteur du plafond: 1768 mètres ( 5800 pieds ).

Observation METAR:

CYQB 280900Z 03003KT 12SM BKN058 OVC170 M09/M11 A2995 RMK SC7AC1 HAZY SLP148=